sensor_id;sensor_type;location;lat;lon;timestamp;temperature;humidity
16767;DHT22;8501;49.926;8.404;2022-08-21T00:02:01;22.30;99.90
16767;DHT22;8501;49.926;8.404;2022-08-21T00:04:26;22.30;99.90
16767;DHT22;8501;49.926;8.404;2022-08-21T00:06:52;22.20;99.90
16767;DHT22;8501;49.926;8.404;2022-08-21T00:09:18;22.10;99.90
16767;DHT22;8501;49.926;8.404;2022-08-21T00:11:45;22.10;99.90
16767;DHT22;8501;49.926;8.404;2022-08-21T00:14:10;22.10;99.90
16767;DHT22;8501;49.926;8.404;2022-08-21T00:16:36;22.20;99.90
16767;DHT22;8501;49.926;8.404;2022-08-21T00:19:06;22.00;99.90
16767;DHT22;8501;49.926;8.404;2022-08-21T00:21:36;21.90;99.90
16767;DHT22;8501;49.926;8.404;2022-08-21T00:24:07;21.90;99.90
16767;DHT22;8501;49.926;8.404;2022-08-21T00:26:35;21.80;99.90
16767;DHT22;8501;49.926;8.404;2022-08-21T00:29:01;21.90;99.90
16767;DHT22;8501;49.926;8.404;2022-08-21T00:31:27;21.70;99.90
16767;DHT22;8501;49.926;8.404;2022-08-21T00:33:52;21.60;99.90
16767;DHT22;8501;49.926;8.404;2022-08-21T00:36:18;21.50;99.90
16767;DHT22;8501;49.926;8.404;2022-08-21T00:38:44;21.50;99.90
16767;DHT22;8501;49.926;8.404;2022-08-21T00:41:11;21.50;99.90
16767;DHT22;8501;49.926;8.404;2022-08-21T00:43:38;21.40;99.90
16767;DHT22;8501;49.926;8.404;2022-08-21T00:46:05;21.50;99.90
16767;DHT22;8501;49.926;8.404;2022-08-21T00:48:34;21.50;99.90
16767;DHT22;8501;49.926;8.404;2022-08-21T00:51:06;21.40;99.90
16767;DHT22;8501;49.926;8.404;2022-08-21T00:53:37;21.40;99.90
16767;DHT22;8501;49.926;8.404;2022-08-21T00:56:07;21.50;99.90
16767;DHT22;8501;49.926;8.404;2022-08-21T00:58:34;21.40;99.90
16767;DHT22;8501;49.926;8.404;2022-08-21T01:01:04;21.30;99.90
16767;DHT22;8501;49.926;8.404;2022-08-21T01:03:30;21.20;99.90
16767;DHT22;8501;49.926;8.404;2022-08-21T01:05:55;21.20;99.90
16767;DHT22;8501;49.926;8.404;2022-08-21T01:08:22;21.20;99.90
16767;DHT22;8501;49.926;8.404;2022-08-21T01:10:49;21.20;99.90
16767;DHT22;8501;49.926;8.404;2022-08-21T01:13:17;21.20;99.90
16767;DHT22;8501;49.926;8.404;2022-08-21T01:15:46;21.10;99.90
16767;DHT22;8501;49.926;8.404;2022-08-21T01:18:14;21.10;99.90
16767;DHT22;8501;49.926;8.404;2022-08-21T01:23:11;21.20;99.90
16767;DHT22;8501;49.926;8.404;2022-08-21T01:25:37;21.20;99.90
16767;DHT22;8501;49.926;8.404;2022-08-21T01:28:13;21.20;99.90
16767;DHT22;8501;49.926;8.404;2022-08-21T01:30:42;21.20;99.90
16767;DHT22;8501;49.926;8.404;2022-08-21T01:33:08;21.20;99.90
16767;DHT22;8501;49.926;8.404;2022-08-21T01:35:34;21.10;99.90
16767;DHT22;8501;49.926;8.404;2022-08-21T01:38:00;21.20;99.90
16767;DHT22;8501;49.926;8.404;2022-08-21T01:40:25;21.10;99.90
16767;DHT22;8501;49.926;8.404;2022-08-21T01:42:51;20.90;99.90
16767;DHT22;8501;49.926;8.404;2022-08-21T01:45:17;20.90;99.90
16767;DHT22;8501;49.926;8.404;2022-08-21T01:47:45;20.90;99.90
16767;DHT22;8501;49.926;8.404;2022-08-21T01:50:15;20.90;99.90
16767;DHT22;8501;49.926;8.404;2022-08-21T01:52:41;20.90;99.90
16767;DHT22;8501;49.926;8.404;2022-08-21T01:55:08;20.90;99.90
16767;DHT22;8501;49.926;8.404;2022-08-21T01:57:34;20.90;99.90
16767;DHT22;8501;49.926;8.404;2022-08-21T02:00:01;21.00;99.90
16767;DHT22;8501;49.926;8.404;2022-08-21T02:02:26;20.90;99.90
16767;DHT22;8501;49.926;8.404;2022-08-21T02:04:52;20.80;99.90
16767;DHT22;8501;49.926;8.404;2022-08-21T02:07:19;20.70;99.90
16767;DHT22;8501;49.926;8.404;2022-08-21T02:09:44;20.70;99.90
16767;DHT22;8501;49.926;8.404;2022-08-21T02:12:11;20.60;99.90
16767;DHT22;8501;49.926;8.404;2022-08-21T02:14:37;20.60;99.90
16767;DHT22;8501;49.926;8.404;2022-08-21T02:17:02;20.50;99.90
16767;DHT22;8501;49.926;8.404;2022-08-21T02:19:28;20.50;99.90
16767;DHT22;8501;49.926;8.404;2022-08-21T02:21:54;20.50;99.90
16767;DHT22;8501;49.926;8.404;2022-08-21T02:24:19;20.50;99.90
16767;DHT22;8501;49.926;8.404;2022-08-21T02:26:45;20.50;99.90
16767;DHT22;8501;49.926;8.404;2022-08-21T02:29:11;20.40;99.90
16767;DHT22;8501;49.926;8.404;2022-08-21T02:31:36;20.40;99.90
16767;DHT22;8501;49.926;8.404;2022-08-21T02:34:02;20.40;99.90
16767;DHT22;8501;49.926;8.404;2022-08-21T02:36:27;20.50;99.90
16767;DHT22;8501;49.926;8.404;2022-08-21T02:38:53;20.60;99.90
16767;DHT22;8501;49.926;8.404;2022-08-21T02:41:20;20.60;99.90
16767;DHT22;8501;49.926;8.404;2022-08-21T02:43:47;20.50;99.90
16767;DHT22;8501;49.926;8.404;2022-08-21T02:46:15;20.50;99.90
16767;DHT22;8501;49.926;8.404;2022-08-21T02:48:42;20.40;99.90
16767;DHT22;8501;49.926;8.404;2022-08-21T02:51:11;20.30;99.90
16767;DHT22;8501;49.926;8.404;2022-08-21T02:53:39;20.30;99.90
16767;DHT22;8501;49.926;8.404;2022-08-21T02:56:08;20.20;99.90
16767;DHT22;8501;49.926;8.404;2022-08-21T02:58:38;20.10;99.90
16767;DHT22;8501;49.926;8.404;2022-08-21T03:01:04;20.00;99.90
16767;DHT22;8501;49.926;8.404;2022-08-21T03:03:30;20.00;99.90
16767;DHT22;8501;49.926;8.404;2022-08-21T03:05:56;20.00;99.90
16767;DHT22;8501;49.926;8.404;2022-08-21T03:08:22;20.00;99.90
16767;DHT22;8501;49.926;8.404;2022-08-21T03:10:50;19.90;99.90
16767;DHT22;8501;49.926;8.404;2022-08-21T03:13:16;20.00;99.90
16767;DHT22;8501;49.926;8.404;2022-08-21T03:15:43;19.90;99.90
16767;DHT22;8501;49.926;8.404;2022-08-21T03:20:39;19.80;99.90
16767;DHT22;8501;49.926;8.404;2022-08-21T03:23:06;19.80;99.90
16767;DHT22;8501;49.926;8.404;2022-08-21T03:25:32;19.80;99.90
16767;DHT22;8501;49.926;8.404;2022-08-21T03:27:59;19.70;99.90
16767;DHT22;8501;49.926;8.404;2022-08-21T03:30:24;19.70;99.90
16767;DHT22;8501;49.926;8.404;2022-08-21T03:32:50;19.70;99.90
16767;DHT22;8501;49.926;8.404;2022-08-21T03:35:17;19.70;99.90
16767;DHT22;8501;49.926;8.404;2022-08-21T03:37:43;19.60;99.90
16767;DHT22;8501;49.926;8.404;2022-08-21T03:40:10;19.60;99.90
16767;DHT22;8501;49.926;8.404;2022-08-21T03:42:37;19.50;99.90
16767;DHT22;8501;49.926;8.404;2022-08-21T03:45:03;19.50;99.90
16767;DHT22;8501;49.926;8.404;2022-08-21T03:47:29;19.50;99.90
16767;DHT22;8501;49.926;8.404;2022-08-21T03:49:55;19.50;99.90
16767;DHT22;8501;49.926;8.404;2022-08-21T03:52:21;19.50;99.90
16767;DHT22;8501;49.926;8.404;2022-08-21T03:54:47;19.60;99.90
16767;DHT22;8501;49.926;8.404;2022-08-21T03:57:13;19.50;99.90
16767;DHT22;8501;49.926;8.404;2022-08-21T03:59:39;19.50;99.90
16767;DHT22;8501;49.926;8.404;2022-08-21T04:02:06;19.50;99.90
16767;DHT22;8501;49.926;8.404;2022-08-21T04:04:33;19.50;99.90
16767;DHT22;8501;49.926;8.404;2022-08-21T04:06:59;19.40;99.90
16767;DHT22;8501;49.926;8.404;2022-08-21T04:09:25;19.50;99.90
16767;DHT22;8501;49.926;8.404;2022-08-21T04:11:51;19.50;99.90
16767;DHT22;8501;49.926;8.404;2022-08-21T04:14:17;19.40;99.90
16767;DHT22;8501;49.926;8.404;2022-08-21T04:16:44;19.40;99.90
16767;DHT22;8501;49.926;8.404;2022-08-21T04:19:11;19.40;99.90
16767;DHT22;8501;49.926;8.404;2022-08-21T04:21:37;19.30;99.90
16767;DHT22;8501;49.926;8.404;2022-08-21T04:24:04;19.30;99.90
16767;DHT22;8501;49.926;8.404;2022-08-21T04:26:30;19.30;99.90
16767;DHT22;8501;49.926;8.404;2022-08-21T04:34:05;19.00;99.90
16767;DHT22;8501;49.926;8.404;2022-08-21T04:36:32;18.90;99.90
16767;DHT22;8501;49.926;8.404;2022-08-21T04:38:57;18.80;99.90
16767;DHT22;8501;49.926;8.404;2022-08-21T04:41:24;18.90;99.90
16767;DHT22;8501;49.926;8.404;2022-08-21T04:43:50;18.90;99.90
16767;DHT22;8501;49.926;8.404;2022-08-21T04:46:15;18.90;99.90
16767;DHT22;8501;49.926;8.404;2022-08-21T04:48:41;18.90;99.90
16767;DHT22;8501;49.926;8.404;2022-08-21T04:51:22;18.90;99.90
16767;DHT22;8501;49.926;8.404;2022-08-21T04:53:54;18.90;99.90
16767;DHT22;8501;49.926;8.404;2022-08-21T04:56:34;18.80;99.90
16767;DHT22;8501;49.926;8.404;2022-08-21T04:59:05;18.90;99.90
16767;DHT22;8501;49.926;8.404;2022-08-21T05:01:34;18.90;99.90
16767;DHT22;8501;49.926;8.404;2022-08-21T05:04:02;18.80;99.90
16767;DHT22;8501;49.926;8.404;2022-08-21T05:06:32;18.80;99.90
16767;DHT22;8501;49.926;8.404;2022-08-21T05:08:59;18.70;99.90
16767;DHT22;8501;49.926;8.404;2022-08-21T05:11:25;18.60;99.90
16767;DHT22;8501;49.926;8.404;2022-08-21T05:13:51;18.60;99.90
16767;DHT22;8501;49.926;8.404;2022-08-21T05:16:17;18.70;99.90
16767;DHT22;8501;49.926;8.404;2022-08-21T05:18:43;18.70;99.90
16767;DHT22;8501;49.926;8.404;2022-08-21T05:21:09;18.80;99.90
16767;DHT22;8501;49.926;8.404;2022-08-21T05:23:35;18.80;99.90
16767;DHT22;8501;49.926;8.404;2022-08-21T05:26:02;18.80;99.90
16767;DHT22;8501;49.926;8.404;2022-08-21T05:28:27;18.80;99.90
16767;DHT22;8501;49.926;8.404;2022-08-21T05:30:53;18.80;99.90
16767;DHT22;8501;49.926;8.404;2022-08-21T05:33:19;18.90;99.90
16767;DHT22;8501;49.926;8.404;2022-08-21T05:35:44;18.90;99.90
16767;DHT22;8501;49.926;8.404;2022-08-21T05:38:10;19.00;99.90
16767;DHT22;8501;49.926;8.404;2022-08-21T05:40:36;18.90;99.90
16767;DHT22;8501;49.926;8.404;2022-08-21T05:45:35;18.90;99.90
16767;DHT22;8501;49.926;8.404;2022-08-21T05:48:09;19.00;99.90
16767;DHT22;8501;49.926;8.404;2022-08-21T05:50:35;19.00;99.90
16767;DHT22;8501;49.926;8.404;2022-08-21T05:53:00;19.10;99.90
16767;DHT22;8501;49.926;8.404;2022-08-21T05:55:26;19.10;99.90
16767;DHT22;8501;49.926;8.404;2022-08-21T05:57:51;19.20;99.90
16767;DHT22;8501;49.926;8.404;2022-08-21T06:00:17;19.20;99.90
16767;DHT22;8501;49.926;8.404;2022-08-21T06:02:44;19.20;99.90
16767;DHT22;8501;49.926;8.404;2022-08-21T06:05:09;19.30;99.90
16767;DHT22;8501;49.926;8.404;2022-08-21T06:07:35;19.30;99.90
16767;DHT22;8501;49.926;8.404;2022-08-21T06:10:00;19.30;99.90
16767;DHT22;8501;49.926;8.404;2022-08-21T06:12:26;19.40;99.90
16767;DHT22;8501;49.926;8.404;2022-08-21T06:14:51;19.40;99.90
16767;DHT22;8501;49.926;8.404;2022-08-21T06:17:18;19.40;99.90
16767;DHT22;8501;49.926;8.404;2022-08-21T06:19:43;19.50;99.90
16767;DHT22;8501;49.926;8.404;2022-08-21T06:22:09;19.50;99.90
16767;DHT22;8501;49.926;8.404;2022-08-21T06:24:35;19.60;99.90
16767;DHT22;8501;49.926;8.404;2022-08-21T06:27:07;19.70;99.90
16767;DHT22;8501;49.926;8.404;2022-08-21T06:29:33;19.70;99.90
16767;DHT22;8501;49.926;8.404;2022-08-21T06:31:59;19.70;99.90
16767;DHT22;8501;49.926;8.404;2022-08-21T06:34:25;19.70;99.90
16767;DHT22;8501;49.926;8.404;2022-08-21T06:36:51;19.80;99.90
16767;DHT22;8501;49.926;8.404;2022-08-21T06:39:17;19.80;99.90
16767;DHT22;8501;49.926;8.404;2022-08-21T06:41:42;19.80;99.90
16767;DHT22;8501;49.926;8.404;2022-08-21T06:44:08;19.80;99.90
16767;DHT22;8501;49.926;8.404;2022-08-21T06:46:34;19.80;99.90
16767;DHT22;8501;49.926;8.404;2022-08-21T06:48:59;19.80;99.90
16767;DHT22;8501;49.926;8.404;2022-08-21T06:51:26;19.90;99.90
16767;DHT22;8501;49.926;8.404;2022-08-21T06:53:52;20.00;99.90
16767;DHT22;8501;49.926;8.404;2022-08-21T06:56:17;20.00;99.90
16767;DHT22;8501;49.926;8.404;2022-08-21T06:58:43;20.10;99.90
16767;DHT22;8501;49.926;8.404;2022-08-21T07:01:09;20.20;99.90
16767;DHT22;8501;49.926;8.404;2022-08-21T07:03:41;20.20;99.90
16767;DHT22;8501;49.926;8.404;2022-08-21T07:06:08;20.20;99.90
16767;DHT22;8501;49.926;8.404;2022-08-21T07:08:34;20.30;99.90
16767;DHT22;8501;49.926;8.404;2022-08-21T07:11:02;20.30;99.90
16767;DHT22;8501;49.926;8.404;2022-08-21T07:13:29;20.40;99.90
16767;DHT22;8501;49.926;8.404;2022-08-21T07:15:54;20.40;99.90
16767;DHT22;8501;49.926;8.404;2022-08-21T07:18:20;20.50;99.90
16767;DHT22;8501;49.926;8.404;2022-08-21T07:20:46;20.50;99.90
16767;DHT22;8501;49.926;8.404;2022-08-21T07:23:20;20.60;99.90
16767;DHT22;8501;49.926;8.404;2022-08-21T07:25:47;20.70;99.90
16767;DHT22;8501;49.926;8.404;2022-08-21T07:28:13;20.80;99.90
16767;DHT22;8501;49.926;8.404;2022-08-21T07:30:38;20.90;99.90
16767;DHT22;8501;49.926;8.404;2022-08-21T07:33:04;20.90;99.90
16767;DHT22;8501;49.926;8.404;2022-08-21T07:35:30;20.90;99.90
16767;DHT22;8501;49.926;8.404;2022-08-21T07:37:58;20.90;99.90
16767;DHT22;8501;49.926;8.404;2022-08-21T07:40:24;21.00;99.90
16767;DHT22;8501;49.926;8.404;2022-08-21T07:42:50;21.10;99.90
16767;DHT22;8501;49.926;8.404;2022-08-21T07:45:21;21.10;99.90
16767;DHT22;8501;49.926;8.404;2022-08-21T07:47:48;21.20;99.90
16767;DHT22;8501;49.926;8.404;2022-08-21T07:50:14;21.30;99.90
16767;DHT22;8501;49.926;8.404;2022-08-21T07:52:41;21.40;99.90
16767;DHT22;8501;49.926;8.404;2022-08-21T07:55:12;21.40;99.90
16767;DHT22;8501;49.926;8.404;2022-08-21T07:57:38;21.50;99.90
16767;DHT22;8501;49.926;8.404;2022-08-21T08:00:06;21.60;99.90
16767;DHT22;8501;49.926;8.404;2022-08-21T08:02:33;21.60;99.90
16767;DHT22;8501;49.926;8.404;2022-08-21T08:05:03;21.70;99.90
16767;DHT22;8501;49.926;8.404;2022-08-21T08:07:29;21.70;99.90
16767;DHT22;8501;49.926;8.404;2022-08-21T08:09:56;21.80;99.90
16767;DHT22;8501;49.926;8.404;2022-08-21T08:12:22;21.80;99.90
16767;DHT22;8501;49.926;8.404;2022-08-21T08:14:48;21.80;99.90
16767;DHT22;8501;49.926;8.404;2022-08-21T08:17:13;21.90;99.90
16767;DHT22;8501;49.926;8.404;2022-08-21T08:19:39;22.00;99.90
16767;DHT22;8501;49.926;8.404;2022-08-21T08:22:19;22.00;99.90
16767;DHT22;8501;49.926;8.404;2022-08-21T08:24:46;22.10;99.90
16767;DHT22;8501;49.926;8.404;2022-08-21T08:27:12;22.20;99.90
16767;DHT22;8501;49.926;8.404;2022-08-21T08:29:38;22.30;99.90
16767;DHT22;8501;49.926;8.404;2022-08-21T08:32:05;22.40;99.90
16767;DHT22;8501;49.926;8.404;2022-08-21T08:34:34;22.40;99.90
16767;DHT22;8501;49.926;8.404;2022-08-21T08:36:59;22.50;99.90
16767;DHT22;8501;49.926;8.404;2022-08-21T08:39:25;22.60;99.90
16767;DHT22;8501;49.926;8.404;2022-08-21T08:44:26;22.80;99.90
16767;DHT22;8501;49.926;8.404;2022-08-21T08:46:53;22.80;99.90
16767;DHT22;8501;49.926;8.404;2022-08-21T08:49:40;22.80;99.90
16767;DHT22;8501;49.926;8.404;2022-08-21T08:52:40;22.90;99.90
16767;DHT22;8501;49.926;8.404;2022-08-21T08:55:07;22.90;99.90
16767;DHT22;8501;49.926;8.404;2022-08-21T08:57:35;23.00;99.90
16767;DHT22;8501;49.926;8.404;2022-08-21T09:00:06;23.10;99.90
16767;DHT22;8501;49.926;8.404;2022-08-21T09:02:32;23.10;99.90
16767;DHT22;8501;49.926;8.404;2022-08-21T09:05:00;23.10;99.90
16767;DHT22;8501;49.926;8.404;2022-08-21T09:07:58;23.20;99.90
16767;DHT22;8501;49.926;8.404;2022-08-21T09:10:38;23.40;99.90
16767;DHT22;8501;49.926;8.404;2022-08-21T09:19:03;23.50;99.90
16767;DHT22;8501;49.926;8.404;2022-08-21T09:21:41;23.60;99.90
16767;DHT22;8501;49.926;8.404;2022-08-21T09:29:27;23.70;99.90
16767;DHT22;8501;49.926;8.404;2022-08-21T09:31:55;23.80;99.90
16767;DHT22;8501;49.926;8.404;2022-08-21T09:34:26;23.80;99.90
16767;DHT22;8501;49.926;8.404;2022-08-21T09:36:52;23.90;99.90
16767;DHT22;8501;49.926;8.404;2022-08-21T09:39:30;24.00;99.90
16767;DHT22;8501;49.926;8.404;2022-08-21T09:42:02;24.10;99.90
16767;DHT22;8501;49.926;8.404;2022-08-21T09:44:30;24.20;99.90
16767;DHT22;8501;49.926;8.404;2022-08-21T09:46:56;24.30;99.90
16767;DHT22;8501;49.926;8.404;2022-08-21T09:49:34;24.30;99.90
16767;DHT22;8501;49.926;8.404;2022-08-21T09:52:01;24.30;99.90
16767;DHT22;8501;49.926;8.404;2022-08-21T09:54:37;24.40;99.90
16767;DHT22;8501;49.926;8.404;2022-08-21T09:59:54;24.40;99.90
16767;DHT22;8501;49.926;8.404;2022-08-21T10:02:25;24.30;99.90
16767;DHT22;8501;49.926;8.404;2022-08-21T10:04:54;24.30;99.90
16767;DHT22;8501;49.926;8.404;2022-08-21T10:07:22;24.40;99.90
16767;DHT22;8501;49.926;8.404;2022-08-21T10:10:20;24.50;99.90
16767;DHT22;8501;49.926;8.404;2022-08-21T10:13:12;24.60;99.90
16767;DHT22;8501;49.926;8.404;2022-08-21T10:18:44;24.70;99.90
16767;DHT22;8501;49.926;8.404;2022-08-21T10:22:07;24.80;99.90
16767;DHT22;8501;49.926;8.404;2022-08-21T10:24:29;24.90;99.90
16767;DHT22;8501;49.926;8.404;2022-08-21T10:35:27;25.20;99.90
16767;DHT22;8501;49.926;8.404;2022-08-21T10:41:26;25.40;99.90
16767;DHT22;8501;49.926;8.404;2022-08-21T10:46:42;25.50;99.90
16767;DHT22;8501;49.926;8.404;2022-08-21T10:49:22;25.60;99.90
16767;DHT22;8501;49.926;8.404;2022-08-21T10:52:20;25.60;99.90
16767;DHT22;8501;49.926;8.404;2022-08-21T10:54:59;25.80;99.90
16767;DHT22;8501;49.926;8.404;2022-08-21T10:57:38;25.90;99.90
16767;DHT22;8501;49.926;8.404;2022-08-21T11:00:10;26.00;99.90
16767;DHT22;8501;49.926;8.404;2022-08-21T11:02:42;26.00;99.90
16767;DHT22;8501;49.926;8.404;2022-08-21T11:08:09;25.90;99.90
16767;DHT22;8501;49.926;8.404;2022-08-21T11:10:49;26.10;99.90
16767;DHT22;8501;49.926;8.404;2022-08-21T11:13:27;26.20;99.90
16767;DHT22;8501;49.926;8.404;2022-08-21T11:16:02;26.10;99.90
16767;DHT22;8501;49.926;8.404;2022-08-21T11:24:21;26.30;99.90
16767;DHT22;8501;49.926;8.404;2022-08-21T11:29:44;26.60;99.90
16767;DHT22;8501;49.926;8.404;2022-08-21T11:32:36;26.70;99.90
16767;DHT22;8501;49.926;8.404;2022-08-21T11:35:13;26.70;99.90
16767;DHT22;8501;49.926;8.404;2022-08-21T11:46:02;26.80;99.90
16767;DHT22;8501;49.926;8.404;2022-08-21T11:52:03;26.90;99.90
16767;DHT22;8501;49.926;8.404;2022-08-21T11:54:58;26.80;99.90
16767;DHT22;8501;49.926;8.404;2022-08-21T11:57:51;26.90;99.90
16767;DHT22;8501;49.926;8.404;2022-08-21T12:00:26;27.20;99.90
16767;DHT22;8501;49.926;8.404;2022-08-21T12:03:11;27.20;99.90
16767;DHT22;8501;49.926;8.404;2022-08-21T12:05:42;27.20;99.70
16767;DHT22;8501;49.926;8.404;2022-08-21T12:10:46;27.10;99.50
16767;DHT22;8501;49.926;8.404;2022-08-21T12:13:28;27.30;99.90
16767;DHT22;8501;49.926;8.404;2022-08-21T12:16:12;27.40;99.60
16767;DHT22;8501;49.926;8.404;2022-08-21T12:18:39;27.40;99.40
16767;DHT22;8501;49.926;8.404;2022-08-21T12:21:16;27.50;99.30
16767;DHT22;8501;49.926;8.404;2022-08-21T12:23:57;27.60;98.50
16767;DHT22;8501;49.926;8.404;2022-08-21T12:26:34;27.60;98.50
16767;DHT22;8501;49.926;8.404;2022-08-21T12:29:12;27.50;97.80
16767;DHT22;8501;49.926;8.404;2022-08-21T12:31:51;27.70;97.60
16767;DHT22;8501;49.926;8.404;2022-08-21T12:34:32;27.70;97.30
16767;DHT22;8501;49.926;8.404;2022-08-21T12:37:04;27.70;97.30
16767;DHT22;8501;49.926;8.404;2022-08-21T12:39:35;27.70;96.70
16767;DHT22;8501;49.926;8.404;2022-08-21T12:42:06;27.60;96.80
16767;DHT22;8501;49.926;8.404;2022-08-21T12:44:46;27.50;96.70
16767;DHT22;8501;49.926;8.404;2022-08-21T12:50:38;27.60;96.80
16767;DHT22;8501;49.926;8.404;2022-08-21T12:53:05;27.70;95.50
16767;DHT22;8501;49.926;8.404;2022-08-21T12:55:34;27.90;95.00
16767;DHT22;8501;49.926;8.404;2022-08-21T12:58:00;27.90;94.20
16767;DHT22;8501;49.926;8.404;2022-08-21T13:00:28;27.90;94.00
16767;DHT22;8501;49.926;8.404;2022-08-21T13:02:55;28.00;93.90
16767;DHT22;8501;49.926;8.404;2022-08-21T13:05:35;28.10;94.20
16767;DHT22;8501;49.926;8.404;2022-08-21T13:08:09;28.10;94.30
16767;DHT22;8501;49.926;8.404;2022-08-21T13:10:36;28.10;94.00
16767;DHT22;8501;49.926;8.404;2022-08-21T13:15:41;28.10;93.00
16767;DHT22;8501;49.926;8.404;2022-08-21T13:18:23;28.10;93.40
16767;DHT22;8501;49.926;8.404;2022-08-21T13:20:50;28.20;93.30
16767;DHT22;8501;49.926;8.404;2022-08-21T13:23:26;28.30;93.70
16767;DHT22;8501;49.926;8.404;2022-08-21T13:25:52;28.50;93.10
16767;DHT22;8501;49.926;8.404;2022-08-21T13:28:20;28.70;92.80
16767;DHT22;8501;49.926;8.404;2022-08-21T13:30:49;28.60;92.20
16767;DHT22;8501;49.926;8.404;2022-08-21T13:33:17;28.50;92.40
16767;DHT22;8501;49.926;8.404;2022-08-21T13:38:25;28.80;92.50
16767;DHT22;8501;49.926;8.404;2022-08-21T13:40:55;28.90;92.00
16767;DHT22;8501;49.926;8.404;2022-08-21T13:43:27;29.00;91.10
16767;DHT22;8501;49.926;8.404;2022-08-21T13:45:55;29.00;91.70
16767;DHT22;8501;49.926;8.404;2022-08-21T13:48:24;29.10;91.00
16767;DHT22;8501;49.926;8.404;2022-08-21T13:50:52;29.00;90.20
16767;DHT22;8501;49.926;8.404;2022-08-21T13:55:57;29.20;90.00
16767;DHT22;8501;49.926;8.404;2022-08-21T13:58:33;29.40;89.60
16767;DHT22;8501;49.926;8.404;2022-08-21T14:03:41;29.60;88.10
16767;DHT22;8501;49.926;8.404;2022-08-21T14:08:38;30.00;85.90
16767;DHT22;8501;49.926;8.404;2022-08-21T14:11:11;30.10;86.00
16767;DHT22;8501;49.926;8.404;2022-08-21T14:13:43;30.20;85.60
16767;DHT22;8501;49.926;8.404;2022-08-21T14:21:42;30.70;82.70
16767;DHT22;8501;49.926;8.404;2022-08-21T14:24:29;30.70;81.90
16767;DHT22;8501;49.926;8.404;2022-08-21T14:27:06;30.70;82.20
16767;DHT22;8501;49.926;8.404;2022-08-21T14:29:41;30.90;82.80
16767;DHT22;8501;49.926;8.404;2022-08-21T14:32:19;31.10;81.90
16767;DHT22;8501;49.926;8.404;2022-08-21T14:34:45;31.30;82.40
16767;DHT22;8501;49.926;8.404;2022-08-21T14:37:11;31.50;79.80
16767;DHT22;8501;49.926;8.404;2022-08-21T14:39:36;31.70;80.30
16767;DHT22;8501;49.926;8.404;2022-08-21T14:42:02;31.90;79.60
16767;DHT22;8501;49.926;8.404;2022-08-21T14:44:28;31.90;78.90
16767;DHT22;8501;49.926;8.404;2022-08-21T14:46:53;31.40;79.90
16767;DHT22;8501;49.926;8.404;2022-08-21T14:49:20;31.60;79.30
16767;DHT22;8501;49.926;8.404;2022-08-21T14:51:46;32.00;76.80
16767;DHT22;8501;49.926;8.404;2022-08-21T14:54:11;32.10;75.00
16767;DHT22;8501;49.926;8.404;2022-08-21T14:56:37;32.40;74.10
16767;DHT22;8501;49.926;8.404;2022-08-21T14:59:05;32.50;74.60
16767;DHT22;8501;49.926;8.404;2022-08-21T15:01:34;32.80;73.90
16767;DHT22;8501;49.926;8.404;2022-08-21T15:06:31;33.00;71.60
16767;DHT22;8501;49.926;8.404;2022-08-21T15:08:56;33.10;72.00
16767;DHT22;8501;49.926;8.404;2022-08-21T15:11:23;33.20;71.40
16767;DHT22;8501;49.926;8.404;2022-08-21T15:13:56;33.20;70.30
16767;DHT22;8501;49.926;8.404;2022-08-21T15:16:23;33.10;71.50
16767;DHT22;8501;49.926;8.404;2022-08-21T15:18:49;33.20;71.60
16767;DHT22;8501;49.926;8.404;2022-08-21T15:21:14;33.00;69.70
16767;DHT22;8501;49.926;8.404;2022-08-21T15:23:40;32.90;69.00
16767;DHT22;8501;49.926;8.404;2022-08-21T15:26:06;32.60;70.00
16767;DHT22;8501;49.926;8.404;2022-08-21T15:28:33;32.40;70.20
16767;DHT22;8501;49.926;8.404;2022-08-21T15:31:00;32.30;70.70
16767;DHT22;8501;49.926;8.404;2022-08-21T15:33:26;32.20;71.30
16767;DHT22;8501;49.926;8.404;2022-08-21T15:35:51;32.00;71.10
16767;DHT22;8501;49.926;8.404;2022-08-21T15:38:17;31.60;71.20
16767;DHT22;8501;49.926;8.404;2022-08-21T15:40:44;31.30;71.50
16767;DHT22;8501;49.926;8.404;2022-08-21T15:43:23;31.00;72.60
16767;DHT22;8501;49.926;8.404;2022-08-21T15:45:50;30.80;74.70
16767;DHT22;8501;49.926;8.404;2022-08-21T15:48:15;30.60;74.70
16767;DHT22;8501;49.926;8.404;2022-08-21T15:50:41;30.40;73.30
16767;DHT22;8501;49.926;8.404;2022-08-21T15:53:07;30.30;73.20
16767;DHT22;8501;49.926;8.404;2022-08-21T15:55:33;30.20;72.70
16767;DHT22;8501;49.926;8.404;2022-08-21T15:57:59;30.10;72.70
16767;DHT22;8501;49.926;8.404;2022-08-21T16:00:25;30.10;72.90
16767;DHT22;8501;49.926;8.404;2022-08-21T16:02:53;30.00;72.60
16767;DHT22;8501;49.926;8.404;2022-08-21T16:05:21;30.00;73.40
16767;DHT22;8501;49.926;8.404;2022-08-21T16:07:49;30.00;74.30
16767;DHT22;8501;49.926;8.404;2022-08-21T16:10:17;29.80;74.30
16767;DHT22;8501;49.926;8.404;2022-08-21T16:15:29;29.70;74.80
16767;DHT22;8501;49.926;8.404;2022-08-21T16:17:55;29.70;76.00
16767;DHT22;8501;49.926;8.404;2022-08-21T16:20:25;29.70;75.80
16767;DHT22;8501;49.926;8.404;2022-08-21T16:22:53;29.70;75.40
16767;DHT22;8501;49.926;8.404;2022-08-21T16:25:20;29.70;77.70
16767;DHT22;8501;49.926;8.404;2022-08-21T16:27:50;29.50;77.80
16767;DHT22;8501;49.926;8.404;2022-08-21T16:30:17;29.40;77.10
16767;DHT22;8501;49.926;8.404;2022-08-21T16:32:44;29.40;75.60
16767;DHT22;8501;49.926;8.404;2022-08-21T16:35:13;29.40;75.20
16767;DHT22;8501;49.926;8.404;2022-08-21T16:37:41;29.40;74.80
16767;DHT22;8501;49.926;8.404;2022-08-21T16:40:07;29.40;75.60
16767;DHT22;8501;49.926;8.404;2022-08-21T16:42:34;29.30;76.90
16767;DHT22;8501;49.926;8.404;2022-08-21T16:45:01;29.30;76.20
16767;DHT22;8501;49.926;8.404;2022-08-21T16:47:29;29.20;77.00
16767;DHT22;8501;49.926;8.404;2022-08-21T16:49:56;29.20;77.70
16767;DHT22;8501;49.926;8.404;2022-08-21T16:52:22;29.20;78.20
16767;DHT22;8501;49.926;8.404;2022-08-21T16:54:48;29.10;80.00
16767;DHT22;8501;49.926;8.404;2022-08-21T16:57:14;29.00;79.90
16767;DHT22;8501;49.926;8.404;2022-08-21T16:59:40;29.00;80.00
16767;DHT22;8501;49.926;8.404;2022-08-21T17:02:20;29.00;80.90
16767;DHT22;8501;49.926;8.404;2022-08-21T17:04:46;28.90;80.10
16767;DHT22;8501;49.926;8.404;2022-08-21T17:07:13;28.90;79.60
16767;DHT22;8501;49.926;8.404;2022-08-21T17:09:38;28.90;80.40
16767;DHT22;8501;49.926;8.404;2022-08-21T17:12:04;28.90;79.60
16767;DHT22;8501;49.926;8.404;2022-08-21T17:14:30;28.80;81.40
16767;DHT22;8501;49.926;8.404;2022-08-21T17:16:56;28.80;81.90
16767;DHT22;8501;49.926;8.404;2022-08-21T17:19:22;28.80;83.90
16767;DHT22;8501;49.926;8.404;2022-08-21T17:21:48;28.70;85.30
16767;DHT22;8501;49.926;8.404;2022-08-21T17:24:15;28.60;85.20
16767;DHT22;8501;49.926;8.404;2022-08-21T17:26:42;28.60;85.00
16767;DHT22;8501;49.926;8.404;2022-08-21T17:29:09;28.60;85.40
16767;DHT22;8501;49.926;8.404;2022-08-21T17:31:38;28.60;86.00
16767;DHT22;8501;49.926;8.404;2022-08-21T17:34:04;28.60;85.90
16767;DHT22;8501;49.926;8.404;2022-08-21T17:36:31;28.50;85.40